Mountain Pass, California
Current Conditions -  °F | °C
As of 11:56 AM on Sunday 25 Jan 2015 (Local Time) from KHND Reporting Station
Clear Clear  
Wind Chill: 65°   Ceiling: Unl
Heat Index: 65°   Visibility: 10mi
Dew Point: 34°   Wind: 10mph
Humidity: 32%   Direction: 360°N
Pressure: 30.26"   Gusts: NA
Location:  35.47°N, 115.54°W
Report Text: KHND 251956Z 36009KT 10SM CLR 18/01 A3026 RMK AO2 SLP243 T01830011
Loading
Personal Weather Stations






























Interactive Weather Map New forecast layout! Learn more

10-Day Weather Forecast

Advertisements
Track Severe Weather on mobile